sensor_id;sensor_type;location;lat;lon;timestamp;temperature;humidity
44775;DHT22;31340;51.402;0.016;2023-12-28T00:00:39;12.50;99.90
44775;DHT22;31340;51.402;0.016;2023-12-28T00:03:07;12.50;99.90
44775;DHT22;31340;51.402;0.016;2023-12-28T00:05:34;12.40;99.90
44775;DHT22;31340;51.402;0.016;2023-12-28T00:08:04;12.50;99.90
44775;DHT22;31340;51.402;0.016;2023-12-28T00:10:31;12.50;99.90
44775;DHT22;31340;51.402;0.016;2023-12-28T00:12:59;12.60;99.90
44775;DHT22;31340;51.402;0.016;2023-12-28T00:15:27;12.60;99.90
44775;DHT22;31340;51.402;0.016;2023-12-28T00:17:55;12.60;99.90
44775;DHT22;31340;51.402;0.016;2023-12-28T00:20:24;12.60;99.90
44775;DHT22;31340;51.402;0.016;2023-12-28T00:22:52;12.60;99.90
44775;DHT22;31340;51.402;0.016;2023-12-28T00:25:20;12.60;99.90
44775;DHT22;31340;51.402;0.016;2023-12-28T00:27:48;12.70;99.90
44775;DHT22;31340;51.402;0.016;2023-12-28T00:30:16;12.70;99.90
44775;DHT22;31340;51.402;0.016;2023-12-28T00:32:45;12.70;99.90
44775;DHT22;31340;51.402;0.016;2023-12-28T00:35:13;12.70;99.90
44775;DHT22;31340;51.402;0.016;2023-12-28T00:37:42;12.70;99.90
44775;DHT22;31340;51.402;0.016;2023-12-28T00:40:11;12.70;99.90
44775;DHT22;31340;51.402;0.016;2023-12-28T00:42:39;12.70;99.90
44775;DHT22;31340;51.402;0.016;2023-12-28T00:45:09;12.70;99.90
44775;DHT22;31340;51.402;0.016;2023-12-28T00:47:38;12.80;99.90
44775;DHT22;31340;51.402;0.016;2023-12-28T00:50:06;12.80;99.90
44775;DHT22;31340;51.402;0.016;2023-12-28T00:52:35;12.80;99.90
44775;DHT22;31340;51.402;0.016;2023-12-28T00:55:03;12.80;99.90
44775;DHT22;31340;51.402;0.016;2023-12-28T00:57:32;12.80;99.90
44775;DHT22;31340;51.402;0.016;2023-12-28T01:00:01;12.80;99.90
44775;DHT22;31340;51.402;0.016;2023-12-28T01:02:30;12.80;99.90
44775;DHT22;31340;51.402;0.016;2023-12-28T01:04:59;12.80;99.90
44775;DHT22;31340;51.402;0.016;2023-12-28T01:07:27;12.80;99.90
44775;DHT22;31340;51.402;0.016;2023-12-28T01:09:55;12.80;99.90
44775;DHT22;31340;51.402;0.016;2023-12-28T01:12:25;12.80;99.90
44775;DHT22;31340;51.402;0.016;2023-12-28T01:14:54;12.80;99.90
44775;DHT22;31340;51.402;0.016;2023-12-28T01:17:21;12.80;99.90
44775;DHT22;31340;51.402;0.016;2023-12-28T01:19:49;12.70;99.90
44775;DHT22;31340;51.402;0.016;2023-12-28T01:22:17;12.70;99.90
44775;DHT22;31340;51.402;0.016;2023-12-28T01:24:48;12.70;99.90
44775;DHT22;31340;51.402;0.016;2023-12-28T01:27:18;12.70;99.90
44775;DHT22;31340;51.402;0.016;2023-12-28T01:29:46;12.60;99.90
44775;DHT22;31340;51.402;0.016;2023-12-28T01:32:15;12.60;99.90
44775;DHT22;31340;51.402;0.016;2023-12-28T01:34:43;12.60;99.90
44775;DHT22;31340;51.402;0.016;2023-12-28T01:37:14;12.60;99.90
44775;DHT22;31340;51.402;0.016;2023-12-28T01:39:43;12.60;99.90
44775;DHT22;31340;51.402;0.016;2023-12-28T01:42:11;12.60;99.90
44775;DHT22;31340;51.402;0.016;2023-12-28T01:44:39;12.60;99.90
44775;DHT22;31340;51.402;0.016;2023-12-28T01:47:06;12.60;99.90
44775;DHT22;31340;51.402;0.016;2023-12-28T01:49:35;12.50;99.90
44775;DHT22;31340;51.402;0.016;2023-12-28T01:52:04;12.50;99.90
44775;DHT22;31340;51.402;0.016;2023-12-28T01:54:34;12.50;99.90
44775;DHT22;31340;51.402;0.016;2023-12-28T01:57:04;12.50;99.90
44775;DHT22;31340;51.402;0.016;2023-12-28T01:59:32;12.50;99.90
44775;DHT22;31340;51.402;0.016;2023-12-28T02:02:00;12.50;99.90
44775;DHT22;31340;51.402;0.016;2023-12-28T02:04:28;12.50;99.90
44775;DHT22;31340;51.402;0.016;2023-12-28T02:06:59;12.40;99.90
44775;DHT22;31340;51.402;0.016;2023-12-28T02:09:30;12.50;99.90
44775;DHT22;31340;51.402;0.016;2023-12-28T02:11:59;12.40;99.90
44775;DHT22;31340;51.402;0.016;2023-12-28T02:14:27;12.50;99.90
44775;DHT22;31340;51.402;0.016;2023-12-28T02:17:36;12.50;99.90
44775;DHT22;31340;51.402;0.016;2023-12-28T02:20:06;12.50;99.90
44775;DHT22;31340;51.402;0.016;2023-12-28T02:22:36;12.50;99.90
44775;DHT22;31340;51.402;0.016;2023-12-28T02:25:07;12.50;99.90
44775;DHT22;31340;51.402;0.016;2023-12-28T02:27:39;12.60;99.90
44775;DHT22;31340;51.402;0.016;2023-12-28T02:30:09;12.50;99.90
44775;DHT22;31340;51.402;0.016;2023-12-28T02:35:33;12.50;99.90
44775;DHT22;31340;51.402;0.016;2023-12-28T02:38:06;12.50;99.90
44775;DHT22;31340;51.402;0.016;2023-12-28T02:40:44;12.60;99.90
44775;DHT22;31340;51.402;0.016;2023-12-28T02:43:13;12.50;99.90
44775;DHT22;31340;51.402;0.016;2023-12-28T02:45:54;12.60;99.90
44775;DHT22;31340;51.402;0.016;2023-12-28T02:48:26;12.50;99.90
44775;DHT22;31340;51.402;0.016;2023-12-28T02:50:54;12.50;99.90
44775;DHT22;31340;51.402;0.016;2023-12-28T02:53:24;12.50;99.90
44775;DHT22;31340;51.402;0.016;2023-12-28T02:55:51;12.50;99.90
44775;DHT22;31340;51.402;0.016;2023-12-28T02:58:20;12.50;99.90
44775;DHT22;31340;51.402;0.016;2023-12-28T03:00:51;12.50;99.90
44775;DHT22;31340;51.402;0.016;2023-12-28T03:03:23;12.50;99.90
44775;DHT22;31340;51.402;0.016;2023-12-28T03:05:55;12.50;99.90
44775;DHT22;31340;51.402;0.016;2023-12-28T03:08:26;13.30;99.90
44775;DHT22;31340;51.402;0.016;2023-12-28T03:10:57;12.40;99.90
44775;DHT22;31340;51.402;0.016;2023-12-28T03:13:29;12.40;99.90
44775;DHT22;31340;51.402;0.016;2023-12-28T03:15:58;12.40;99.90
44775;DHT22;31340;51.402;0.016;2023-12-28T03:18:39;12.40;99.90
44775;DHT22;31340;51.402;0.016;2023-12-28T03:21:08;12.40;99.90
44775;DHT22;31340;51.402;0.016;2023-12-28T03:23:36;12.70;99.90
44775;DHT22;31340;51.402;0.016;2023-12-28T03:26:11;12.40;99.90
44775;DHT22;31340;51.402;0.016;2023-12-28T03:28:40;12.40;99.90
44775;DHT22;31340;51.402;0.016;2023-12-28T03:31:15;12.40;99.90
44775;DHT22;31340;51.402;0.016;2023-12-28T03:33:44;12.40;99.90
44775;DHT22;31340;51.402;0.016;2023-12-28T03:36:19;12.40;99.90
44775;DHT22;31340;51.402;0.016;2023-12-28T03:38:49;12.40;99.90
44775;DHT22;31340;51.402;0.016;2023-12-28T03:41:29;12.40;99.90
44775;DHT22;31340;51.402;0.016;2023-12-28T03:43:58;12.50;99.90
44775;DHT22;31340;51.402;0.016;2023-12-28T03:46:28;12.40;99.90
44775;DHT22;31340;51.402;0.016;2023-12-28T03:48:56;12.40;99.90
44775;DHT22;31340;51.402;0.016;2023-12-28T03:51:25;12.50;99.90
44775;DHT22;31340;51.402;0.016;2023-12-28T03:54:00;12.50;99.90
44775;DHT22;31340;51.402;0.016;2023-12-28T03:56:28;12.50;99.90
44775;DHT22;31340;51.402;0.016;2023-12-28T03:59:00;12.50;99.90
44775;DHT22;31340;51.402;0.016;2023-12-28T04:01:33;12.50;99.90
44775;DHT22;31340;51.402;0.016;2023-12-28T04:04:04;12.50;99.90
44775;DHT22;31340;51.402;0.016;2023-12-28T04:06:43;12.60;99.90
44775;DHT22;31340;51.402;0.016;2023-12-28T04:09:12;12.50;99.90
44775;DHT22;31340;51.402;0.016;2023-12-28T04:11:41;12.50;99.90
44775;DHT22;31340;51.402;0.016;2023-12-28T04:14:13;12.60;99.90
44775;DHT22;31340;51.402;0.016;2023-12-28T04:16:44;12.60;99.90
44775;DHT22;31340;51.402;0.016;2023-12-28T04:19:18;12.60;99.90
44775;DHT22;31340;51.402;0.016;2023-12-28T04:21:52;12.60;99.90
44775;DHT22;31340;51.402;0.016;2023-12-28T04:24:23;12.60;99.90
44775;DHT22;31340;51.402;0.016;2023-12-28T04:26:54;12.60;99.90
44775;DHT22;31340;51.402;0.016;2023-12-28T04:29:23;12.60;99.90
44775;DHT22;31340;51.402;0.016;2023-12-28T04:31:52;12.60;99.90
44775;DHT22;31340;51.402;0.016;2023-12-28T04:34:23;12.60;99.90
44775;DHT22;31340;51.402;0.016;2023-12-28T04:36:56;12.70;99.90
44775;DHT22;31340;51.402;0.016;2023-12-28T04:39:27;12.60;99.90
44775;DHT22;31340;51.402;0.016;2023-12-28T04:42:00;12.70;99.90
44775;DHT22;31340;51.402;0.016;2023-12-28T04:44:29;12.70;99.90
44775;DHT22;31340;51.402;0.016;2023-12-28T04:46:59;12.60;99.90
44775;DHT22;31340;51.402;0.016;2023-12-28T04:49:30;12.70;99.90
44775;DHT22;31340;51.402;0.016;2023-12-28T04:52:00;12.70;99.90
44775;DHT22;31340;51.402;0.016;2023-12-28T04:54:33;12.70;99.90
44775;DHT22;31340;51.402;0.016;2023-12-28T04:57:04;12.70;99.90
44775;DHT22;31340;51.402;0.016;2023-12-28T04:59:32;12.80;99.90
44775;DHT22;31340;51.402;0.016;2023-12-28T05:02:00;12.80;99.90
44775;DHT22;31340;51.402;0.016;2023-12-28T05:04:39;12.80;99.90
44775;DHT22;31340;51.402;0.016;2023-12-28T05:07:10;12.80;99.90
44775;DHT22;31340;51.402;0.016;2023-12-28T05:09:39;12.80;99.90
44775;DHT22;31340;51.402;0.016;2023-12-28T05:12:07;12.80;99.90
44775;DHT22;31340;51.402;0.016;2023-12-28T05:14:35;12.80;99.90
44775;DHT22;31340;51.402;0.016;2023-12-28T05:17:04;12.80;99.90
44775;DHT22;31340;51.402;0.016;2023-12-28T05:19:32;12.80;99.90
44775;DHT22;31340;51.402;0.016;2023-12-28T05:22:04;12.80;99.90
44775;DHT22;31340;51.402;0.016;2023-12-28T05:24:35;12.80;99.90
44775;DHT22;31340;51.402;0.016;2023-12-28T05:27:05;12.80;99.90
44775;DHT22;31340;51.402;0.016;2023-12-28T05:29:39;12.80;99.90
44775;DHT22;31340;51.402;0.016;2023-12-28T05:32:13;12.80;99.90
44775;DHT22;31340;51.402;0.016;2023-12-28T05:34:41;12.70;99.90
44775;DHT22;31340;51.402;0.016;2023-12-28T05:37:16;12.80;99.90
44775;DHT22;31340;51.402;0.016;2023-12-28T05:39:46;12.70;99.90
44775;DHT22;31340;51.402;0.016;2023-12-28T05:42:16;12.70;99.90
44775;DHT22;31340;51.402;0.016;2023-12-28T05:44:47;12.70;99.90
44775;DHT22;31340;51.402;0.016;2023-12-28T05:47:19;12.70;99.90
44775;DHT22;31340;51.402;0.016;2023-12-28T05:49:48;12.70;99.90
44775;DHT22;31340;51.402;0.016;2023-12-28T05:52:25;12.70;99.90
44775;DHT22;31340;51.402;0.016;2023-12-28T05:54:56;12.80;99.90
44775;DHT22;31340;51.402;0.016;2023-12-28T05:57:31;12.80;99.90
44775;DHT22;31340;51.402;0.016;2023-12-28T06:00:02;12.80;99.90
44775;DHT22;31340;51.402;0.016;2023-12-28T06:02:42;12.80;99.90
44775;DHT22;31340;51.402;0.016;2023-12-28T06:05:12;12.80;99.90
44775;DHT22;31340;51.402;0.016;2023-12-28T06:07:40;12.80;99.90
44775;DHT22;31340;51.402;0.016;2023-12-28T06:10:10;12.80;99.90
44775;DHT22;31340;51.402;0.016;2023-12-28T06:12:38;12.80;99.90
44775;DHT22;31340;51.402;0.016;2023-12-28T06:15:11;12.90;99.90
44775;DHT22;31340;51.402;0.016;2023-12-28T06:17:42;12.90;99.90
44775;DHT22;31340;51.402;0.016;2023-12-28T06:20:10;12.80;99.90
44775;DHT22;31340;51.402;0.016;2023-12-28T06:22:40;12.80;99.90
44775;DHT22;31340;51.402;0.016;2023-12-28T06:25:11;12.80;99.90
44775;DHT22;31340;51.402;0.016;2023-12-28T06:27:46;12.80;99.90
44775;DHT22;31340;51.402;0.016;2023-12-28T06:30:15;12.70;99.90
44775;DHT22;31340;51.402;0.016;2023-12-28T06:32:47;12.70;99.90
44775;DHT22;31340;51.402;0.016;2023-12-28T06:35:28;12.70;99.90
44775;DHT22;31340;51.402;0.016;2023-12-28T06:37:59;12.70;99.90
44775;DHT22;31340;51.402;0.016;2023-12-28T06:40:28;12.50;99.90
44775;DHT22;31340;51.402;0.016;2023-12-28T06:42:56;12.50;99.90
44775;DHT22;31340;51.402;0.016;2023-12-28T06:45:25;12.40;99.90
44775;DHT22;31340;51.402;0.016;2023-12-28T06:47:57;12.40;99.90
44775;DHT22;31340;51.402;0.016;2023-12-28T06:50:28;12.30;99.90
44775;DHT22;31340;51.402;0.016;2023-12-28T06:52:57;12.30;99.90
44775;DHT22;31340;51.402;0.016;2023-12-28T06:55:31;12.30;99.90
44775;DHT22;31340;51.402;0.016;2023-12-28T06:58:02;12.20;99.90
44775;DHT22;31340;51.402;0.016;2023-12-28T07:00:34;12.20;99.90
44775;DHT22;31340;51.402;0.016;2023-12-28T07:03:03;12.10;99.90
44775;DHT22;31340;51.402;0.016;2023-12-28T07:05:34;12.10;99.90
44775;DHT22;31340;51.402;0.016;2023-12-28T07:08:04;12.10;99.90
44775;DHT22;31340;51.402;0.016;2023-12-28T07:10:38;12.00;99.90
44775;DHT22;31340;51.402;0.016;2023-12-28T07:13:09;12.00;99.90
44775;DHT22;31340;51.402;0.016;2023-12-28T07:15:37;12.00;99.90
44775;DHT22;31340;51.402;0.016;2023-12-28T07:18:17;12.00;99.90
44775;DHT22;31340;51.402;0.016;2023-12-28T07:20:48;12.00;99.90
44775;DHT22;31340;51.402;0.016;2023-12-28T07:23:16;12.10;99.90
44775;DHT22;31340;51.402;0.016;2023-12-28T07:25:44;12.00;99.90
44775;DHT22;31340;51.402;0.016;2023-12-28T07:28:14;12.70;99.90
44775;DHT22;31340;51.402;0.016;2023-12-28T07:30:42;12.00;99.90
44775;DHT22;31340;51.402;0.016;2023-12-28T07:33:10;12.00;99.90
44775;DHT22;31340;51.402;0.016;2023-12-28T07:35:42;12.00;99.90
44775;DHT22;31340;51.402;0.016;2023-12-28T07:38:13;12.00;99.90
44775;DHT22;31340;51.402;0.016;2023-12-28T07:40:43;12.00;99.90
44775;DHT22;31340;51.402;0.016;2023-12-28T07:43:16;12.00;99.90
44775;DHT22;31340;51.402;0.016;2023-12-28T07:45:50;12.00;99.90
44775;DHT22;31340;51.402;0.016;2023-12-28T07:48:26;12.00;99.90
44775;DHT22;31340;51.402;0.016;2023-12-28T07:50:54;12.00;99.90
44775;DHT22;31340;51.402;0.016;2023-12-28T07:53:25;12.00;99.90
44775;DHT22;31340;51.402;0.016;2023-12-28T07:55:53;12.00;99.90
44775;DHT22;31340;51.402;0.016;2023-12-28T07:58:22;12.00;99.90
44775;DHT22;31340;51.402;0.016;2023-12-28T08:00:51;11.90;99.90
44775;DHT22;31340;51.402;0.016;2023-12-28T08:03:19;11.90;99.90
44775;DHT22;31340;51.402;0.016;2023-12-28T08:05:57;11.90;99.90
44775;DHT22;31340;51.402;0.016;2023-12-28T08:08:33;11.90;99.90
44775;DHT22;31340;51.402;0.016;2023-12-28T08:11:04;11.90;99.90
44775;DHT22;31340;51.402;0.016;2023-12-28T08:13:32;11.90;99.90
44775;DHT22;31340;51.402;0.016;2023-12-28T08:16:12;11.90;99.90
44775;DHT22;31340;51.402;0.016;2023-12-28T08:18:40;11.90;99.90
44775;DHT22;31340;51.402;0.016;2023-12-28T08:21:12;11.90;99.90
44775;DHT22;31340;51.402;0.016;2023-12-28T08:23:42;11.90;99.90
44775;DHT22;31340;51.402;0.016;2023-12-28T08:26:10;11.90;99.90
44775;DHT22;31340;51.402;0.016;2023-12-28T08:28:45;11.90;99.90
44775;DHT22;31340;51.402;0.016;2023-12-28T08:31:20;12.80;99.90
44775;DHT22;31340;51.402;0.016;2023-12-28T08:33:50;11.90;99.90
44775;DHT22;31340;51.402;0.016;2023-12-28T08:36:20;11.90;99.90
44775;DHT22;31340;51.402;0.016;2023-12-28T08:38:49;12.10;99.90
44775;DHT22;31340;51.402;0.016;2023-12-28T08:41:21;12.00;99.90
44775;DHT22;31340;51.402;0.016;2023-12-28T08:43:54;11.90;99.90
44775;DHT22;31340;51.402;0.016;2023-12-28T08:46:29;11.90;99.90
44775;DHT22;31340;51.402;0.016;2023-12-28T08:49:02;11.90;99.90
44775;DHT22;31340;51.402;0.016;2023-12-28T08:51:31;11.90;99.90
44775;DHT22;31340;51.402;0.016;2023-12-28T08:53:59;12.00;99.90
44775;DHT22;31340;51.402;0.016;2023-12-28T08:56:27;12.00;99.90
44775;DHT22;31340;51.402;0.016;2023-12-28T08:59:01;12.00;99.90
44775;DHT22;31340;51.402;0.016;2023-12-28T09:01:31;12.00;99.90
44775;DHT22;31340;51.402;0.016;2023-12-28T09:04:00;12.00;99.90
44775;DHT22;31340;51.402;0.016;2023-12-28T09:06:30;12.00;99.90
44775;DHT22;31340;51.402;0.016;2023-12-28T09:09:00;12.00;99.90
44775;DHT22;31340;51.402;0.016;2023-12-28T09:11:30;12.10;99.90
44775;DHT22;31340;51.402;0.016;2023-12-28T09:13:58;12.10;99.90
44775;DHT22;31340;51.402;0.016;2023-12-28T09:16:27;12.10;99.90
44775;DHT22;31340;51.402;0.016;2023-12-28T09:18:56;12.10;99.90
44775;DHT22;31340;51.402;0.016;2023-12-28T09:21:26;12.20;99.90
44775;DHT22;31340;51.402;0.016;2023-12-28T09:23:54;12.20;99.90
44775;DHT22;31340;51.402;0.016;2023-12-28T09:26:22;12.20;99.90
44775;DHT22;31340;51.402;0.016;2023-12-28T09:28:51;12.30;99.90
44775;DHT22;31340;51.402;0.016;2023-12-28T09:31:22;12.30;99.90
44775;DHT22;31340;51.402;0.016;2023-12-28T09:33:50;12.30;99.90
44775;DHT22;31340;51.402;0.016;2023-12-28T09:36:19;12.40;99.90
44775;DHT22;31340;51.402;0.016;2023-12-28T09:38:47;12.40;99.90
44775;DHT22;31340;51.402;0.016;2023-12-28T09:41:17;12.40;99.90
44775;DHT22;31340;51.402;0.016;2023-12-28T09:44:00;12.50;99.90
44775;DHT22;31340;51.402;0.016;2023-12-28T09:46:32;12.60;99.90
44775;DHT22;31340;51.402;0.016;2023-12-28T09:49:02;12.60;99.90
44775;DHT22;31340;51.402;0.016;2023-12-28T09:51:35;12.60;99.90
44775;DHT22;31340;51.402;0.016;2023-12-28T09:54:06;12.60;99.90
44775;DHT22;31340;51.402;0.016;2023-12-28T09:56:37;12.70;99.90
44775;DHT22;31340;51.402;0.016;2023-12-28T09:59:08;12.70;99.90
44775;DHT22;31340;51.402;0.016;2023-12-28T10:01:37;12.70;99.90
44775;DHT22;31340;51.402;0.016;2023-12-28T10:04:09;12.70;99.90
44775;DHT22;31340;51.402;0.016;2023-12-28T10:06:42;12.80;99.90
44775;DHT22;31340;51.402;0.016;2023-12-28T10:09:10;12.80;99.90
44775;DHT22;31340;51.402;0.016;2023-12-28T10:11:38;12.80;99.90
44775;DHT22;31340;51.402;0.016;2023-12-28T10:14:07;12.90;99.90
44775;DHT22;31340;51.402;0.016;2023-12-28T10:16:42;12.90;99.90
44775;DHT22;31340;51.402;0.016;2023-12-28T10:19:11;13.00;99.90
44775;DHT22;31340;51.402;0.016;2023-12-28T10:21:40;13.00;99.90
44775;DHT22;31340;51.402;0.016;2023-12-28T10:24:12;13.00;99.90
44775;DHT22;31340;51.402;0.016;2023-12-28T10:26:41;13.10;99.90
44775;DHT22;31340;51.402;0.016;2023-12-28T10:29:25;13.10;99.90
44775;DHT22;31340;51.402;0.016;2023-12-28T10:31:56;13.20;99.90
44775;DHT22;31340;51.402;0.016;2023-12-28T10:34:24;13.20;99.90
44775;DHT22;31340;51.402;0.016;2023-12-28T10:36:54;13.20;99.90
44775;DHT22;31340;51.402;0.016;2023-12-28T10:39:31;13.20;99.90
44775;DHT22;31340;51.402;0.016;2023-12-28T10:42:09;13.40;99.90
44775;DHT22;31340;51.402;0.016;2023-12-28T10:44:39;13.30;99.90
44775;DHT22;31340;51.402;0.016;2023-12-28T10:47:15;13.30;99.90
44775;DHT22;31340;51.402;0.016;2023-12-28T10:49:48;13.30;99.90
44775;DHT22;31340;51.402;0.016;2023-12-28T10:52:26;13.40;99.90
44775;DHT22;31340;51.402;0.016;2023-12-28T10:58:50;13.40;99.90
44775;DHT22;31340;51.402;0.016;2023-12-28T11:01:42;13.40;99.90
44775;DHT22;31340;51.402;0.016;2023-12-28T11:04:24;13.40;99.90
44775;DHT22;31340;51.402;0.016;2023-12-28T11:06:58;13.40;99.90
44775;DHT22;31340;51.402;0.016;2023-12-28T11:09:31;13.40;99.90
44775;DHT22;31340;51.402;0.016;2023-12-28T11:12:01;13.40;99.90
44775;DHT22;31340;51.402;0.016;2023-12-28T11:14:34;13.40;99.90
44775;DHT22;31340;51.402;0.016;2023-12-28T11:17:02;13.40;99.90
44775;DHT22;31340;51.402;0.016;2023-12-28T11:19:34;13.50;99.90
44775;DHT22;31340;51.402;0.016;2023-12-28T11:22:07;13.50;99.90
44775;DHT22;31340;51.402;0.016;2023-12-28T11:24:36;13.60;99.90
44775;DHT22;31340;51.402;0.016;2023-12-28T11:27:04;13.50;99.90
44775;DHT22;31340;51.402;0.016;2023-12-28T11:29:38;13.50;99.90
44775;DHT22;31340;51.402;0.016;2023-12-28T11:32:09;13.60;99.90
44775;DHT22;31340;51.402;0.016;2023-12-28T11:34:38;13.60;99.90
44775;DHT22;31340;51.402;0.016;2023-12-28T11:37:16;13.60;99.90
44775;DHT22;31340;51.402;0.016;2023-12-28T11:39:48;13.70;99.90
44775;DHT22;31340;51.402;0.016;2023-12-28T11:42:22;13.70;99.90
44775;DHT22;31340;51.402;0.016;2023-12-28T11:44:55;13.80;99.90
44775;DHT22;31340;51.402;0.016;2023-12-28T11:47:25;13.90;99.90
44775;DHT22;31340;51.402;0.016;2023-12-28T11:50:06;14.00;99.90
44775;DHT22;31340;51.402;0.016;2023-12-28T11:52:35;14.00;99.90
44775;DHT22;31340;51.402;0.016;2023-12-28T11:55:04;14.10;99.90
44775;DHT22;31340;51.402;0.016;2023-12-28T11:57:36;14.10;99.90
44775;DHT22;31340;51.402;0.016;2023-12-28T12:00:06;14.10;99.90
44775;DHT22;31340;51.402;0.016;2023-12-28T12:02:35;14.10;99.90
44775;DHT22;31340;51.402;0.016;2023-12-28T12:05:08;14.10;99.90
44775;DHT22;31340;51.402;0.016;2023-12-28T12:07:36;14.10;99.90
44775;DHT22;31340;51.402;0.016;2023-12-28T12:10:04;14.00;99.90
44775;DHT22;31340;51.402;0.016;2023-12-28T12:12:37;14.00;99.90
44775;DHT22;31340;51.402;0.016;2023-12-28T12:15:08;13.90;99.90
44775;DHT22;31340;51.402;0.016;2023-12-28T12:17:40;13.90;99.90
44775;DHT22;31340;51.402;0.016;2023-12-28T12:20:10;13.90;99.90
44775;DHT22;31340;51.402;0.016;2023-12-28T12:22:38;13.90;99.90
44775;DHT22;31340;51.402;0.016;2023-12-28T12:25:11;13.90;99.90
44775;DHT22;31340;51.402;0.016;2023-12-28T12:27:41;13.90;99.90
44775;DHT22;31340;51.402;0.016;2023-12-28T12:30:09;13.90;99.90
44775;DHT22;31340;51.402;0.016;2023-12-28T12:32:38;13.80;99.90
44775;DHT22;31340;51.402;0.016;2023-12-28T12:35:12;13.80;99.90
44775;DHT22;31340;51.402;0.016;2023-12-28T12:37:45;13.80;99.90
44775;DHT22;31340;51.402;0.016;2023-12-28T12:40:24;13.80;99.90
44775;DHT22;31340;51.402;0.016;2023-12-28T12:42:54;13.70;99.90
44775;DHT22;31340;51.402;0.016;2023-12-28T12:45:23;13.60;99.90
44775;DHT22;31340;51.402;0.016;2023-12-28T12:47:52;13.70;99.90
44775;DHT22;31340;51.402;0.016;2023-12-28T12:50:23;13.70;99.90
44775;DHT22;31340;51.402;0.016;2023-12-28T12:52:52;13.70;99.90
44775;DHT22;31340;51.402;0.016;2023-12-28T12:55:25;13.60;99.90
44775;DHT22;31340;51.402;0.016;2023-12-28T12:57:54;13.60;99.90
44775;DHT22;31340;51.402;0.016;2023-12-28T13:00:34;13.60;99.90
44775;DHT22;31340;51.402;0.016;2023-12-28T13:03:05;13.60;99.90
44775;DHT22;31340;51.402;0.016;2023-12-28T13:05:36;13.60;99.90
44775;DHT22;31340;51.402;0.016;2023-12-28T13:08:06;13.60;99.90
44775;DHT22;31340;51.402;0.016;2023-12-28T13:10:35;13.60;99.90
44775;DHT22;31340;51.402;0.016;2023-12-28T13:13:07;13.60;99.90
44775;DHT22;31340;51.402;0.016;2023-12-28T13:15:35;13.70;99.90
44775;DHT22;31340;51.402;0.016;2023-12-28T13:18:07;13.60;99.90
44775;DHT22;31340;51.402;0.016;2023-12-28T13:20:41;13.70;99.90
44775;DHT22;31340;51.402;0.016;2023-12-28T13:23:11;13.70;99.90
44775;DHT22;31340;51.402;0.016;2023-12-28T13:25:42;13.70;99.90
44775;DHT22;31340;51.402;0.016;2023-12-28T13:28:12;13.80;99.90
44775;DHT22;31340;51.402;0.016;2023-12-28T13:30:41;13.70;99.90
44775;DHT22;31340;51.402;0.016;2023-12-28T13:33:09;13.70;99.90
44775;DHT22;31340;51.402;0.016;2023-12-28T13:35:37;13.70;99.90
44775;DHT22;31340;51.402;0.016;2023-12-28T13:38:04;13.80;99.90
44775;DHT22;31340;51.402;0.016;2023-12-28T13:40:32;13.70;99.90
44775;DHT22;31340;51.402;0.016;2023-12-28T13:43:01;13.80;99.90
44775;DHT22;31340;51.402;0.016;2023-12-28T13:45:29;13.70;99.90
44775;DHT22;31340;51.402;0.016;2023-12-28T13:47:57;13.70;99.90
44775;DHT22;31340;51.402;0.016;2023-12-28T13:50:25;13.70;99.90
44775;DHT22;31340;51.402;0.016;2023-12-28T13:52:53;13.70;99.90
44775;DHT22;31340;51.402;0.016;2023-12-28T13:55:22;13.70;99.90
44775;DHT22;31340;51.402;0.016;2023-12-28T13:57:58;13.70;99.90
44775;DHT22;31340;51.402;0.016;2023-12-28T14:00:26;13.70;99.90
44775;DHT22;31340;51.402;0.016;2023-12-28T14:02:55;13.60;99.90
44775;DHT22;31340;51.402;0.016;2023-12-28T14:05:24;13.70;99.90
44775;DHT22;31340;51.402;0.016;2023-12-28T14:07:54;13.70;99.90
44775;DHT22;31340;51.402;0.016;2023-12-28T14:10:24;13.60;99.90
44775;DHT22;31340;51.402;0.016;2023-12-28T14:12:52;13.80;99.90
44775;DHT22;31340;51.402;0.016;2023-12-28T14:15:21;13.70;99.90
44775;DHT22;31340;51.402;0.016;2023-12-28T14:17:53;13.70;99.90
44775;DHT22;31340;51.402;0.016;2023-12-28T14:20:21;13.70;99.90
44775;DHT22;31340;51.402;0.016;2023-12-28T14:22:52;13.70;99.90
44775;DHT22;31340;51.402;0.016;2023-12-28T14:25:21;13.70;99.90
44775;DHT22;31340;51.402;0.016;2023-12-28T14:27:49;13.70;99.90
44775;DHT22;31340;51.402;0.016;2023-12-28T14:30:19;13.70;99.90
44775;DHT22;31340;51.402;0.016;2023-12-28T14:32:49;13.70;99.90
44775;DHT22;31340;51.402;0.016;2023-12-28T14:35:29;13.70;99.90
44775;DHT22;31340;51.402;0.016;2023-12-28T14:37:57;13.70;99.90
44775;DHT22;31340;51.402;0.016;2023-12-28T14:40:34;13.70;99.90
44775;DHT22;31340;51.402;0.016;2023-12-28T14:43:09;13.70;99.90
44775;DHT22;31340;51.402;0.016;2023-12-28T14:45:52;13.70;99.90
44775;DHT22;31340;51.402;0.016;2023-12-28T14:48:21;13.70;99.90
44775;DHT22;31340;51.402;0.016;2023-12-28T14:50:49;13.90;99.90
44775;DHT22;31340;51.402;0.016;2023-12-28T14:53:17;14.10;99.90
44775;DHT22;31340;51.402;0.016;2023-12-28T14:55:46;13.70;99.90
44775;DHT22;31340;51.402;0.016;2023-12-28T14:58:20;14.30;99.90
44775;DHT22;31340;51.402;0.016;2023-12-28T15:00:56;13.70;99.90
44775;DHT22;31340;51.402;0.016;2023-12-28T15:03:24;13.70;99.90
44775;DHT22;31340;51.402;0.016;2023-12-28T15:05:52;13.70;99.90
44775;DHT22;31340;51.402;0.016;2023-12-28T15:08:25;13.70;99.90
44775;DHT22;31340;51.402;0.016;2023-12-28T15:10:56;13.60;99.90
44775;DHT22;31340;51.402;0.016;2023-12-28T15:13:26;13.60;99.90
44775;DHT22;31340;51.402;0.016;2023-12-28T15:15:57;13.60;99.90
44775;DHT22;31340;51.402;0.016;2023-12-28T15:18:26;13.60;99.90
44775;DHT22;31340;51.402;0.016;2023-12-28T15:20:54;13.60;99.90
44775;DHT22;31340;51.402;0.016;2023-12-28T15:23:22;13.50;99.90
44775;DHT22;31340;51.402;0.016;2023-12-28T15:25:54;13.50;99.90
44775;DHT22;31340;51.402;0.016;2023-12-28T15:28:24;13.50;99.90
44775;DHT22;31340;51.402;0.016;2023-12-28T15:30:52;13.40;99.90
44775;DHT22;31340;51.402;0.016;2023-12-28T15:33:21;13.40;99.90
44775;DHT22;31340;51.402;0.016;2023-12-28T15:35:50;13.40;99.90
44775;DHT22;31340;51.402;0.016;2023-12-28T15:38:18;13.30;99.90
44775;DHT22;31340;51.402;0.016;2023-12-28T15:40:47;13.30;99.90
44775;DHT22;31340;51.402;0.016;2023-12-28T15:43:16;13.30;99.90
44775;DHT22;31340;51.402;0.016;2023-12-28T15:45:46;13.30;99.90
44775;DHT22;31340;51.402;0.016;2023-12-28T15:48:14;13.30;99.90
44775;DHT22;31340;51.402;0.016;2023-12-28T15:50:42;13.20;99.90
44775;DHT22;31340;51.402;0.016;2023-12-28T15:53:13;13.20;99.90
44775;DHT22;31340;51.402;0.016;2023-12-28T15:55:43;13.20;99.90
44775;DHT22;31340;51.402;0.016;2023-12-28T15:58:13;13.20;99.90